sensor_id;sensor_type;location;lat;lon;timestamp;P1;durP1;ratioP1;P2;durP2;ratioP2
7531;SDS011;3807;49.030;8.714;2023-01-08T00:00:54;4.40;;;2.97;;
7531;SDS011;3807;49.030;8.714;2023-01-08T00:03:20;3.67;;;3.03;;
7531;SDS011;3807;49.030;8.714;2023-01-08T00:05:45;3.47;;;2.50;;
7531;SDS011;3807;49.030;8.714;2023-01-08T00:08:11;5.20;;;3.10;;
7531;SDS011;3807;49.030;8.714;2023-01-08T00:10:36;3.93;;;3.00;;
7531;SDS011;3807;49.030;8.714;2023-01-08T00:13:03;3.60;;;3.00;;
7531;SDS011;3807;49.030;8.714;2023-01-08T00:15:30;4.73;;;3.50;;
7531;SDS011;3807;49.030;8.714;2023-01-08T00:17:56;4.53;;;2.83;;
7531;SDS011;3807;49.030;8.714;2023-01-08T00:20:22;3.17;;;2.70;;
7531;SDS011;3807;49.030;8.714;2023-01-08T00:22:48;4.67;;;2.90;;
7531;SDS011;3807;49.030;8.714;2023-01-08T00:25:14;5.43;;;3.67;;
7531;SDS011;3807;49.030;8.714;2023-01-08T00:27:40;5.70;;;3.87;;
7531;SDS011;3807;49.030;8.714;2023-01-08T00:30:05;5.03;;;3.23;;
7531;SDS011;3807;49.030;8.714;2023-01-08T00:32:31;4.10;;;3.10;;
7531;SDS011;3807;49.030;8.714;2023-01-08T00:34:57;4.63;;;3.13;;
7531;SDS011;3807;49.030;8.714;2023-01-08T00:37:22;4.30;;;3.27;;
7531;SDS011;3807;49.030;8.714;2023-01-08T00:39:47;4.57;;;3.40;;
7531;SDS011;3807;49.030;8.714;2023-01-08T00:42:13;4.20;;;3.23;;
7531;SDS011;3807;49.030;8.714;2023-01-08T00:44:38;5.57;;;3.43;;
7531;SDS011;3807;49.030;8.714;2023-01-08T00:47:03;4.53;;;3.30;;
7531;SDS011;3807;49.030;8.714;2023-01-08T00:49:29;4.20;;;3.10;;
7531;SDS011;3807;49.030;8.714;2023-01-08T00:51:54;6.57;;;3.17;;
7531;SDS011;3807;49.030;8.714;2023-01-08T00:54:19;4.13;;;3.00;;
7531;SDS011;3807;49.030;8.714;2023-01-08T00:56:45;4.83;;;3.47;;
7531;SDS011;3807;49.030;8.714;2023-01-08T00:59:10;4.87;;;3.50;;
7531;SDS011;3807;49.030;8.714;2023-01-08T01:01:36;4.40;;;3.33;;
7531;SDS011;3807;49.030;8.714;2023-01-08T01:04:01;5.37;;;3.50;;
7531;SDS011;3807;49.030;8.714;2023-01-08T01:06:26;5.17;;;3.13;;
7531;SDS011;3807;49.030;8.714;2023-01-08T01:08:52;4.80;;;3.10;;
7531;SDS011;3807;49.030;8.714;2023-01-08T01:11:22;4.37;;;3.20;;
7531;SDS011;3807;49.030;8.714;2023-01-08T01:13:50;5.23;;;3.57;;
7531;SDS011;3807;49.030;8.714;2023-01-08T01:16:16;4.20;;;3.50;;
7531;SDS011;3807;49.030;8.714;2023-01-08T01:18:42;5.43;;;3.10;;
7531;SDS011;3807;49.030;8.714;2023-01-08T01:21:08;4.00;;;3.30;;
7531;SDS011;3807;49.030;8.714;2023-01-08T01:23:45;4.83;;;3.40;;
7531;SDS011;3807;49.030;8.714;2023-01-08T01:26:16;6.97;;;3.47;;
7531;SDS011;3807;49.030;8.714;2023-01-08T01:28:43;4.37;;;3.37;;
7531;SDS011;3807;49.030;8.714;2023-01-08T01:31:11;6.30;;;3.33;;
7531;SDS011;3807;49.030;8.714;2023-01-08T01:33:40;4.60;;;3.20;;
7531;SDS011;3807;49.030;8.714;2023-01-08T01:36:06;4.70;;;3.13;;
7531;SDS011;3807;49.030;8.714;2023-01-08T01:38:33;4.10;;;3.10;;
7531;SDS011;3807;49.030;8.714;2023-01-08T01:40:58;4.20;;;3.20;;
7531;SDS011;3807;49.030;8.714;2023-01-08T01:43:40;5.10;;;3.47;;
7531;SDS011;3807;49.030;8.714;2023-01-08T01:48:59;3.73;;;2.87;;
7531;SDS011;3807;49.030;8.714;2023-01-08T01:51:30;5.37;;;3.20;;
7531;SDS011;3807;49.030;8.714;2023-01-08T01:53:58;6.07;;;3.47;;
7531;SDS011;3807;49.030;8.714;2023-01-08T01:56:25;3.47;;;2.87;;
7531;SDS011;3807;49.030;8.714;2023-01-08T01:58:52;5.87;;;3.03;;
7531;SDS011;3807;49.030;8.714;2023-01-08T02:01:17;3.90;;;3.00;;
7531;SDS011;3807;49.030;8.714;2023-01-08T02:03:43;4.73;;;3.10;;
7531;SDS011;3807;49.030;8.714;2023-01-08T02:06:21;3.50;;;2.47;;
7531;SDS011;3807;49.030;8.714;2023-01-08T02:14:48;3.00;;;2.50;;
7531;SDS011;3807;49.030;8.714;2023-01-08T02:17:31;3.43;;;2.90;;
7531;SDS011;3807;49.030;8.714;2023-01-08T02:20:20;5.40;;;2.90;;
7531;SDS011;3807;49.030;8.714;2023-01-08T02:28:33;3.70;;;2.93;;
7531;SDS011;3807;49.030;8.714;2023-01-08T02:31:04;4.73;;;2.77;;
7531;SDS011;3807;49.030;8.714;2023-01-08T02:33:30;4.87;;;2.83;;
7531;SDS011;3807;49.030;8.714;2023-01-08T02:36:20;3.50;;;2.70;;
7531;SDS011;3807;49.030;8.714;2023-01-08T02:39:08;7.23;;;3.70;;
7531;SDS011;3807;49.030;8.714;2023-01-08T02:44:46;6.33;;;3.40;;
7531;SDS011;3807;49.030;8.714;2023-01-08T02:50:03;4.07;;;3.00;;
7531;SDS011;3807;49.030;8.714;2023-01-08T02:52:30;4.70;;;2.80;;
7531;SDS011;3807;49.030;8.714;2023-01-08T02:54:59;4.43;;;3.30;;
7531;SDS011;3807;49.030;8.714;2023-01-08T02:57:27;3.83;;;3.20;;
7531;SDS011;3807;49.030;8.714;2023-01-08T02:59:54;7.13;;;4.20;;
7531;SDS011;3807;49.030;8.714;2023-01-08T03:02:21;4.23;;;3.20;;
7531;SDS011;3807;49.030;8.714;2023-01-08T03:04:49;5.07;;;3.23;;
7531;SDS011;3807;49.030;8.714;2023-01-08T03:07:18;4.27;;;2.93;;
7531;SDS011;3807;49.030;8.714;2023-01-08T03:09:45;4.33;;;3.00;;
7531;SDS011;3807;49.030;8.714;2023-01-08T03:12:15;5.93;;;3.23;;
7531;SDS011;3807;49.030;8.714;2023-01-08T03:14:55;5.17;;;3.27;;
7531;SDS011;3807;49.030;8.714;2023-01-08T03:17:35;3.87;;;3.07;;
7531;SDS011;3807;49.030;8.714;2023-01-08T03:20:07;4.80;;;3.23;;
7531;SDS011;3807;49.030;8.714;2023-01-08T03:22:38;4.53;;;3.37;;
7531;SDS011;3807;49.030;8.714;2023-01-08T03:25:05;4.70;;;2.77;;
7531;SDS011;3807;49.030;8.714;2023-01-08T03:27:32;3.80;;;2.60;;
7531;SDS011;3807;49.030;8.714;2023-01-08T03:30:03;3.47;;;2.53;;
7531;SDS011;3807;49.030;8.714;2023-01-08T03:32:31;3.83;;;2.97;;
7531;SDS011;3807;49.030;8.714;2023-01-08T03:34:58;3.23;;;2.73;;
7531;SDS011;3807;49.030;8.714;2023-01-08T03:37:28;4.07;;;2.93;;
7531;SDS011;3807;49.030;8.714;2023-01-08T03:40:05;3.50;;;2.80;;
7531;SDS011;3807;49.030;8.714;2023-01-08T03:42:38;4.53;;;2.93;;
7531;SDS011;3807;49.030;8.714;2023-01-08T03:45:04;4.10;;;3.03;;
7531;SDS011;3807;49.030;8.714;2023-01-08T03:47:30;3.63;;;2.87;;
7531;SDS011;3807;49.030;8.714;2023-01-08T03:49:59;2.87;;;2.27;;
7531;SDS011;3807;49.030;8.714;2023-01-08T03:52:28;2.63;;;2.30;;
7531;SDS011;3807;49.030;8.714;2023-01-08T03:54:54;3.20;;;2.80;;
7531;SDS011;3807;49.030;8.714;2023-01-08T03:57:20;4.03;;;2.80;;
7531;SDS011;3807;49.030;8.714;2023-01-08T03:59:46;5.53;;;3.17;;
7531;SDS011;3807;49.030;8.714;2023-01-08T04:02:12;5.33;;;2.73;;
7531;SDS011;3807;49.030;8.714;2023-01-08T04:04:38;3.90;;;2.63;;
7531;SDS011;3807;49.030;8.714;2023-01-08T04:07:03;6.33;;;3.10;;
7531;SDS011;3807;49.030;8.714;2023-01-08T04:09:29;5.33;;;2.57;;
7531;SDS011;3807;49.030;8.714;2023-01-08T04:11:54;3.63;;;2.70;;
7531;SDS011;3807;49.030;8.714;2023-01-08T04:14:19;5.03;;;2.63;;
7531;SDS011;3807;49.030;8.714;2023-01-08T04:16:45;3.67;;;2.57;;
7531;SDS011;3807;49.030;8.714;2023-01-08T04:19:10;3.93;;;2.80;;
7531;SDS011;3807;49.030;8.714;2023-01-08T04:21:36;2.87;;;2.30;;
7531;SDS011;3807;49.030;8.714;2023-01-08T04:24:02;3.60;;;2.50;;
7531;SDS011;3807;49.030;8.714;2023-01-08T04:26:27;6.23;;;3.10;;
7531;SDS011;3807;49.030;8.714;2023-01-08T04:28:53;5.20;;;2.50;;
7531;SDS011;3807;49.030;8.714;2023-01-08T04:31:18;4.10;;;2.90;;
7531;SDS011;3807;49.030;8.714;2023-01-08T04:33:43;2.93;;;2.40;;
7531;SDS011;3807;49.030;8.714;2023-01-08T04:36:09;3.03;;;2.53;;
7531;SDS011;3807;49.030;8.714;2023-01-08T04:38:34;3.03;;;2.63;;
7531;SDS011;3807;49.030;8.714;2023-01-08T04:41:00;4.20;;;2.60;;
7531;SDS011;3807;49.030;8.714;2023-01-08T04:43:26;4.23;;;2.37;;
7531;SDS011;3807;49.030;8.714;2023-01-08T04:45:56;4.60;;;3.10;;
7531;SDS011;3807;49.030;8.714;2023-01-08T04:48:26;3.23;;;2.43;;
7531;SDS011;3807;49.030;8.714;2023-01-08T04:50:52;3.30;;;2.60;;
7531;SDS011;3807;49.030;8.714;2023-01-08T04:53:17;3.70;;;2.50;;
7531;SDS011;3807;49.030;8.714;2023-01-08T04:55:43;3.00;;;2.30;;
7531;SDS011;3807;49.030;8.714;2023-01-08T04:58:08;3.57;;;2.40;;
7531;SDS011;3807;49.030;8.714;2023-01-08T05:00:33;4.23;;;2.83;;
7531;SDS011;3807;49.030;8.714;2023-01-08T05:02:59;3.97;;;2.80;;
7531;SDS011;3807;49.030;8.714;2023-01-08T05:05:24;3.27;;;2.87;;
7531;SDS011;3807;49.030;8.714;2023-01-08T05:07:50;4.17;;;3.03;;
7531;SDS011;3807;49.030;8.714;2023-01-08T05:10:15;4.10;;;2.90;;
7531;SDS011;3807;49.030;8.714;2023-01-08T05:12:40;5.13;;;2.90;;
7531;SDS011;3807;49.030;8.714;2023-01-08T05:15:06;4.13;;;2.90;;
7531;SDS011;3807;49.030;8.714;2023-01-08T05:17:33;3.70;;;2.80;;
7531;SDS011;3807;49.030;8.714;2023-01-08T05:19:58;3.43;;;2.97;;
7531;SDS011;3807;49.030;8.714;2023-01-08T05:22:23;3.20;;;2.90;;
7531;SDS011;3807;49.030;8.714;2023-01-08T05:24:48;4.17;;;2.97;;
7531;SDS011;3807;49.030;8.714;2023-01-08T05:27:14;3.47;;;3.10;;
7531;SDS011;3807;49.030;8.714;2023-01-08T05:29:39;3.83;;;2.83;;
7531;SDS011;3807;49.030;8.714;2023-01-08T05:32:05;2.97;;;2.67;;
7531;SDS011;3807;49.030;8.714;2023-01-08T05:34:37;3.10;;;2.73;;
7531;SDS011;3807;49.030;8.714;2023-01-08T05:37:03;4.00;;;3.00;;
7531;SDS011;3807;49.030;8.714;2023-01-08T05:39:28;4.50;;;3.70;;
7531;SDS011;3807;49.030;8.714;2023-01-08T05:41:53;5.13;;;3.53;;
7531;SDS011;3807;49.030;8.714;2023-01-08T05:44:19;13.23;;;8.40;;
7531;SDS011;3807;49.030;8.714;2023-01-08T05:46:44;11.30;;;7.67;;
7531;SDS011;3807;49.030;8.714;2023-01-08T05:49:09;6.53;;;4.43;;
7531;SDS011;3807;49.030;8.714;2023-01-08T05:51:34;4.47;;;3.73;;
7531;SDS011;3807;49.030;8.714;2023-01-08T05:54:00;5.20;;;3.80;;
7531;SDS011;3807;49.030;8.714;2023-01-08T05:56:25;4.00;;;3.60;;
7531;SDS011;3807;49.030;8.714;2023-01-08T05:58:52;5.43;;;3.40;;
7531;SDS011;3807;49.030;8.714;2023-01-08T06:01:18;3.77;;;3.10;;
7531;SDS011;3807;49.030;8.714;2023-01-08T06:03:44;5.53;;;3.27;;
7531;SDS011;3807;49.030;8.714;2023-01-08T06:06:09;3.80;;;3.17;;
7531;SDS011;3807;49.030;8.714;2023-01-08T06:08:35;3.40;;;3.10;;
7531;SDS011;3807;49.030;8.714;2023-01-08T06:11:01;4.07;;;3.10;;
7531;SDS011;3807;49.030;8.714;2023-01-08T06:13:29;4.23;;;3.33;;
7531;SDS011;3807;49.030;8.714;2023-01-08T06:15:56;4.87;;;3.27;;
7531;SDS011;3807;49.030;8.714;2023-01-08T06:18:24;4.63;;;3.10;;
7531;SDS011;3807;49.030;8.714;2023-01-08T06:20:49;4.93;;;3.60;;
7531;SDS011;3807;49.030;8.714;2023-01-08T06:23:14;4.13;;;3.10;;
7531;SDS011;3807;49.030;8.714;2023-01-08T06:25:40;3.03;;;2.73;;
7531;SDS011;3807;49.030;8.714;2023-01-08T06:28:05;2.83;;;2.50;;
7531;SDS011;3807;49.030;8.714;2023-01-08T06:30:30;3.20;;;2.43;;
7531;SDS011;3807;49.030;8.714;2023-01-08T06:32:56;3.20;;;2.40;;
7531;SDS011;3807;49.030;8.714;2023-01-08T06:35:22;2.60;;;2.40;;
7531;SDS011;3807;49.030;8.714;2023-01-08T06:37:48;4.40;;;2.53;;
7531;SDS011;3807;49.030;8.714;2023-01-08T06:40:13;2.77;;;2.30;;
7531;SDS011;3807;49.030;8.714;2023-01-08T06:42:39;4.07;;;2.10;;
7531;SDS011;3807;49.030;8.714;2023-01-08T06:45:04;4.30;;;2.60;;
7531;SDS011;3807;49.030;8.714;2023-01-08T06:47:31;3.97;;;2.70;;
7531;SDS011;3807;49.030;8.714;2023-01-08T06:49:56;3.13;;;2.70;;
7531;SDS011;3807;49.030;8.714;2023-01-08T06:52:23;2.87;;;2.40;;
7531;SDS011;3807;49.030;8.714;2023-01-08T06:54:48;3.27;;;2.60;;
7531;SDS011;3807;49.030;8.714;2023-01-08T06:57:14;3.60;;;3.03;;
7531;SDS011;3807;49.030;8.714;2023-01-08T06:59:39;3.27;;;2.43;;
7531;SDS011;3807;49.030;8.714;2023-01-08T07:02:04;4.17;;;2.93;;
7531;SDS011;3807;49.030;8.714;2023-01-08T07:04:30;2.90;;;2.47;;
7531;SDS011;3807;49.030;8.714;2023-01-08T07:06:55;5.87;;;3.23;;
7531;SDS011;3807;49.030;8.714;2023-01-08T07:09:20;3.53;;;3.03;;
7531;SDS011;3807;49.030;8.714;2023-01-08T07:11:46;3.60;;;2.60;;
7531;SDS011;3807;49.030;8.714;2023-01-08T07:14:11;5.93;;;2.77;;
7531;SDS011;3807;49.030;8.714;2023-01-08T07:16:36;3.80;;;3.00;;
7531;SDS011;3807;49.030;8.714;2023-01-08T07:19:02;3.53;;;3.13;;
7531;SDS011;3807;49.030;8.714;2023-01-08T07:21:27;4.80;;;3.00;;
7531;SDS011;3807;49.030;8.714;2023-01-08T07:23:53;4.23;;;3.53;;
7531;SDS011;3807;49.030;8.714;2023-01-08T07:26:18;5.37;;;3.77;;
7531;SDS011;3807;49.030;8.714;2023-01-08T07:28:43;3.57;;;3.10;;
7531;SDS011;3807;49.030;8.714;2023-01-08T07:31:09;4.40;;;3.30;;
7531;SDS011;3807;49.030;8.714;2023-01-08T07:33:34;5.17;;;3.57;;
7531;SDS011;3807;49.030;8.714;2023-01-08T07:36:00;4.90;;;3.67;;
7531;SDS011;3807;49.030;8.714;2023-01-08T07:38:26;4.90;;;4.03;;
7531;SDS011;3807;49.030;8.714;2023-01-08T07:40:51;6.40;;;3.30;;
7531;SDS011;3807;49.030;8.714;2023-01-08T07:43:17;4.83;;;2.97;;
7531;SDS011;3807;49.030;8.714;2023-01-08T07:45:43;4.57;;;3.23;;
7531;SDS011;3807;49.030;8.714;2023-01-08T07:48:08;7.93;;;3.90;;
7531;SDS011;3807;49.030;8.714;2023-01-08T07:50:35;9.07;;;4.90;;
7531;SDS011;3807;49.030;8.714;2023-01-08T07:53:01;5.83;;;3.80;;
7531;SDS011;3807;49.030;8.714;2023-01-08T07:55:28;4.17;;;3.20;;
7531;SDS011;3807;49.030;8.714;2023-01-08T07:57:54;4.93;;;3.17;;
7531;SDS011;3807;49.030;8.714;2023-01-08T08:00:19;5.33;;;2.80;;
7531;SDS011;3807;49.030;8.714;2023-01-08T08:02:46;2.20;;;2.00;;
7531;SDS011;3807;49.030;8.714;2023-01-08T08:05:12;2.73;;;2.40;;
7531;SDS011;3807;49.030;8.714;2023-01-08T08:07:37;3.67;;;2.40;;
7531;SDS011;3807;49.030;8.714;2023-01-08T08:10:03;3.97;;;3.07;;
7531;SDS011;3807;49.030;8.714;2023-01-08T08:12:29;4.03;;;2.77;;
7531;SDS011;3807;49.030;8.714;2023-01-08T08:14:54;3.27;;;2.97;;
7531;SDS011;3807;49.030;8.714;2023-01-08T08:17:20;6.90;;;4.27;;
7531;SDS011;3807;49.030;8.714;2023-01-08T08:19:45;14.13;;;6.57;;
7531;SDS011;3807;49.030;8.714;2023-01-08T08:22:11;12.17;;;6.43;;
7531;SDS011;3807;49.030;8.714;2023-01-08T08:24:37;17.23;;;8.23;;
7531;SDS011;3807;49.030;8.714;2023-01-08T08:27:02;12.73;;;7.70;;
7531;SDS011;3807;49.030;8.714;2023-01-08T08:29:28;12.20;;;5.00;;
7531;SDS011;3807;49.030;8.714;2023-01-08T08:31:53;5.13;;;3.23;;
7531;SDS011;3807;49.030;8.714;2023-01-08T08:34:18;3.13;;;2.67;;
7531;SDS011;3807;49.030;8.714;2023-01-08T08:36:47;4.93;;;3.10;;
7531;SDS011;3807;49.030;8.714;2023-01-08T08:39:13;3.00;;;2.40;;
7531;SDS011;3807;49.030;8.714;2023-01-08T08:41:38;5.03;;;2.80;;
7531;SDS011;3807;49.030;8.714;2023-01-08T08:44:04;3.73;;;2.83;;
7531;SDS011;3807;49.030;8.714;2023-01-08T08:46:29;5.00;;;3.87;;
7531;SDS011;3807;49.030;8.714;2023-01-08T08:48:55;5.53;;;3.37;;
7531;SDS011;3807;49.030;8.714;2023-01-08T08:51:20;5.43;;;4.17;;
7531;SDS011;3807;49.030;8.714;2023-01-08T08:53:45;10.53;;;6.60;;
7531;SDS011;3807;49.030;8.714;2023-01-08T08:56:11;9.50;;;6.07;;
7531;SDS011;3807;49.030;8.714;2023-01-08T08:58:36;6.57;;;5.10;;
7531;SDS011;3807;49.030;8.714;2023-01-08T09:01:02;8.90;;;6.43;;
7531;SDS011;3807;49.030;8.714;2023-01-08T09:03:28;7.07;;;5.43;;
7531;SDS011;3807;49.030;8.714;2023-01-08T09:05:54;5.80;;;4.30;;
7531;SDS011;3807;49.030;8.714;2023-01-08T09:08:20;9.13;;;5.07;;
7531;SDS011;3807;49.030;8.714;2023-01-08T09:10:45;7.83;;;5.07;;
7531;SDS011;3807;49.030;8.714;2023-01-08T09:13:10;7.50;;;5.83;;
7531;SDS011;3807;49.030;8.714;2023-01-08T09:15:36;6.90;;;5.07;;
7531;SDS011;3807;49.030;8.714;2023-01-08T09:18:02;6.40;;;4.70;;
7531;SDS011;3807;49.030;8.714;2023-01-08T09:20:27;5.63;;;4.70;;
7531;SDS011;3807;49.030;8.714;2023-01-08T09:22:53;5.37;;;3.80;;
7531;SDS011;3807;49.030;8.714;2023-01-08T09:25:21;8.00;;;4.47;;
7531;SDS011;3807;49.030;8.714;2023-01-08T09:27:46;6.63;;;5.00;;
7531;SDS011;3807;49.030;8.714;2023-01-08T09:30:12;6.30;;;4.77;;
7531;SDS011;3807;49.030;8.714;2023-01-08T09:32:37;5.77;;;4.20;;
7531;SDS011;3807;49.030;8.714;2023-01-08T09:35:03;4.90;;;3.67;;
7531;SDS011;3807;49.030;8.714;2023-01-08T09:37:29;6.33;;;3.80;;
7531;SDS011;3807;49.030;8.714;2023-01-08T09:39:55;18.27;;;10.87;;
7531;SDS011;3807;49.030;8.714;2023-01-08T09:42:21;6.83;;;4.90;;
7531;SDS011;3807;49.030;8.714;2023-01-08T09:44:51;6.90;;;3.80;;
7531;SDS011;3807;49.030;8.714;2023-01-08T09:50:03;7.97;;;4.60;;
7531;SDS011;3807;49.030;8.714;2023-01-08T09:52:31;8.43;;;5.83;;
7531;SDS011;3807;49.030;8.714;2023-01-08T09:54:57;7.47;;;5.30;;
7531;SDS011;3807;49.030;8.714;2023-01-08T09:57:24;7.67;;;5.20;;
7531;SDS011;3807;49.030;8.714;2023-01-08T09:59:50;9.07;;;5.60;;
7531;SDS011;3807;49.030;8.714;2023-01-08T10:02:23;5.80;;;4.17;;
7531;SDS011;3807;49.030;8.714;2023-01-08T10:04:53;5.73;;;4.27;;
7531;SDS011;3807;49.030;8.714;2023-01-08T10:07:24;7.07;;;4.30;;
7531;SDS011;3807;49.030;8.714;2023-01-08T10:09:51;8.53;;;5.33;;
7531;SDS011;3807;49.030;8.714;2023-01-08T10:12:27;10.47;;;6.53;;
7531;SDS011;3807;49.030;8.714;2023-01-08T10:15:02;13.27;;;6.80;;
7531;SDS011;3807;49.030;8.714;2023-01-08T10:17:37;5.97;;;4.63;;
7531;SDS011;3807;49.030;8.714;2023-01-08T10:20:10;5.17;;;3.33;;
7531;SDS011;3807;49.030;8.714;2023-01-08T10:22:37;5.27;;;3.90;;
7531;SDS011;3807;49.030;8.714;2023-01-08T10:25:06;5.93;;;3.50;;
7531;SDS011;3807;49.030;8.714;2023-01-08T10:27:45;4.27;;;2.67;;
7531;SDS011;3807;49.030;8.714;2023-01-08T10:30:16;8.40;;;5.27;;
7531;SDS011;3807;49.030;8.714;2023-01-08T10:32:47;5.07;;;3.20;;
7531;SDS011;3807;49.030;8.714;2023-01-08T10:35:16;4.87;;;3.10;;
7531;SDS011;3807;49.030;8.714;2023-01-08T10:37:45;4.70;;;3.37;;
7531;SDS011;3807;49.030;8.714;2023-01-08T10:40:27;3.67;;;3.00;;
7531;SDS011;3807;49.030;8.714;2023-01-08T10:43:04;4.07;;;3.43;;
7531;SDS011;3807;49.030;8.714;2023-01-08T10:45:32;6.70;;;3.87;;
7531;SDS011;3807;49.030;8.714;2023-01-08T10:47:58;4.73;;;3.80;;
7531;SDS011;3807;49.030;8.714;2023-01-08T10:50:27;6.30;;;4.63;;
7531;SDS011;3807;49.030;8.714;2023-01-08T10:52:55;5.37;;;3.67;;
7531;SDS011;3807;49.030;8.714;2023-01-08T10:55:23;5.03;;;3.63;;
7531;SDS011;3807;49.030;8.714;2023-01-08T10:57:58;6.77;;;3.53;;
7531;SDS011;3807;49.030;8.714;2023-01-08T11:00:26;4.33;;;3.07;;
7531;SDS011;3807;49.030;8.714;2023-01-08T11:02:55;7.07;;;2.80;;
7531;SDS011;3807;49.030;8.714;2023-01-08T11:05:31;4.43;;;2.37;;
7531;SDS011;3807;49.030;8.714;2023-01-08T11:08:06;3.33;;;2.80;;
7531;SDS011;3807;49.030;8.714;2023-01-08T11:10:40;4.40;;;3.20;;
7531;SDS011;3807;49.030;8.714;2023-01-08T11:13:05;3.97;;;3.23;;
7531;SDS011;3807;49.030;8.714;2023-01-08T11:15:35;3.70;;;2.57;;
7531;SDS011;3807;49.030;8.714;2023-01-08T11:18:09;3.60;;;2.10;;
7531;SDS011;3807;49.030;8.714;2023-01-08T11:20:40;2.70;;;1.83;;
7531;SDS011;3807;49.030;8.714;2023-01-08T11:23:22;3.63;;;2.17;;
7531;SDS011;3807;49.030;8.714;2023-01-08T11:31:07;5.10;;;2.50;;
7531;SDS011;3807;49.030;8.714;2023-01-08T11:33:38;2.57;;;1.20;;
7531;SDS011;3807;49.030;8.714;2023-01-08T11:36:09;2.73;;;1.90;;
7531;SDS011;3807;49.030;8.714;2023-01-08T11:38:39;3.83;;;2.40;;
7531;SDS011;3807;49.030;8.714;2023-01-08T11:41:11;5.77;;;3.10;;
7531;SDS011;3807;49.030;8.714;2023-01-08T11:52:22;1.40;;;1.30;;
7531;SDS011;3807;49.030;8.714;2023-01-08T11:55:15;2.03;;;1.67;;
7531;SDS011;3807;49.030;8.714;2023-01-08T12:03:20;1.70;;;1.40;;
7531;SDS011;3807;49.030;8.714;2023-01-08T12:08:57;1.27;;;1.00;;
7531;SDS011;3807;49.030;8.714;2023-01-08T12:11:27;1.30;;;1.20;;
7531;SDS011;3807;49.030;8.714;2023-01-08T12:16:35;1.40;;;1.10;;
7531;SDS011;3807;49.030;8.714;2023-01-08T12:19:14;2.27;;;1.40;;
7531;SDS011;3807;49.030;8.714;2023-01-08T12:27:27;2.47;;;1.50;;
7531;SDS011;3807;49.030;8.714;2023-01-08T12:32:49;1.57;;;1.30;;
7531;SDS011;3807;49.030;8.714;2023-01-08T12:35:24;1.77;;;1.67;;
7531;SDS011;3807;49.030;8.714;2023-01-08T12:38:00;1.40;;;1.30;;
7531;SDS011;3807;49.030;8.714;2023-01-08T12:40:39;1.90;;;1.70;;
7531;SDS011;3807;49.030;8.714;2023-01-08T12:43:13;29.23;;;9.03;;
7531;SDS011;3807;49.030;8.714;2023-01-08T12:45:43;30.57;;;9.57;;
7531;SDS011;3807;49.030;8.714;2023-01-08T12:48:28;70.03;;;31.60;;
7531;SDS011;3807;49.030;8.714;2023-01-08T12:51:19;31.77;;;16.80;;
7531;SDS011;3807;49.030;8.714;2023-01-08T12:53:52;27.43;;;12.40;;
7531;SDS011;3807;49.030;8.714;2023-01-08T12:56:27;30.37;;;15.40;;
7531;SDS011;3807;49.030;8.714;2023-01-08T13:02:18;23.10;;;12.73;;
7531;SDS011;3807;49.030;8.714;2023-01-08T13:05:31;18.33;;;10.87;;
7531;SDS011;3807;49.030;8.714;2023-01-08T13:10:54;15.93;;;9.57;;
7531;SDS011;3807;49.030;8.714;2023-01-08T13:13:26;33.57;;;17.67;;
7531;SDS011;3807;49.030;8.714;2023-01-08T13:16:36;13.67;;;7.43;;
7531;SDS011;3807;49.030;8.714;2023-01-08T13:18:57;11.70;;;6.73;;
7531;SDS011;3807;49.030;8.714;2023-01-08T13:21:32;23.73;;;13.07;;
7531;SDS011;3807;49.030;8.714;2023-01-08T13:24:01;7.10;;;4.67;;
7531;SDS011;3807;49.030;8.714;2023-01-08T13:26:45;22.00;;;10.50;;
7531;SDS011;3807;49.030;8.714;2023-01-08T13:29:24;19.33;;;9.90;;
7531;SDS011;3807;49.030;8.714;2023-01-08T13:32:20;9.63;;;5.35;;
7531;SDS011;3807;49.030;8.714;2023-01-08T13:34:58;7.67;;;4.80;;
7531;SDS011;3807;49.030;8.714;2023-01-08T13:37:25;21.27;;;11.27;;
7531;SDS011;3807;49.030;8.714;2023-01-08T13:39:51;26.07;;;14.03;;
7531;SDS011;3807;49.030;8.714;2023-01-08T13:42:20;14.33;;;8.50;;
7531;SDS011;3807;49.030;8.714;2023-01-08T13:44:51;19.33;;;10.37;;
7531;SDS011;3807;49.030;8.714;2023-01-08T13:49:59;13.07;;;7.10;;
7531;SDS011;3807;49.030;8.714;2023-01-08T13:52:30;20.77;;;11.03;;
7531;SDS011;3807;49.030;8.714;2023-01-08T13:55:03;5.43;;;3.10;;
7531;SDS011;3807;49.030;8.714;2023-01-08T13:57:35;9.20;;;4.63;;
7531;SDS011;3807;49.030;8.714;2023-01-08T14:00:04;58.23;;;22.03;;
7531;SDS011;3807;49.030;8.714;2023-01-08T14:02:39;7.43;;;3.70;;
7531;SDS011;3807;49.030;8.714;2023-01-08T14:05:30;13.03;;;6.13;;
7531;SDS011;3807;49.030;8.714;2023-01-08T14:07:56;17.47;;;7.23;;
7531;SDS011;3807;49.030;8.714;2023-01-08T14:10:23;21.53;;;9.47;;
7531;SDS011;3807;49.030;8.714;2023-01-08T14:12:50;21.63;;;9.80;;
7531;SDS011;3807;49.030;8.714;2023-01-08T14:15:21;32.13;;;13.40;;
7531;SDS011;3807;49.030;8.714;2023-01-08T14:17:48;23.13;;;11.33;;
7531;SDS011;3807;49.030;8.714;2023-01-08T14:20:18;9.27;;;5.00;;
7531;SDS011;3807;49.030;8.714;2023-01-08T14:22:48;11.97;;;6.30;;
7531;SDS011;3807;49.030;8.714;2023-01-08T14:25:14;6.27;;;3.10;;
7531;SDS011;3807;49.030;8.714;2023-01-08T14:27:42;4.13;;;2.60;;
7531;SDS011;3807;49.030;8.714;2023-01-08T14:30:14;2.03;;;1.50;;
7531;SDS011;3807;49.030;8.714;2023-01-08T14:32:41;3.40;;;2.43;;
7531;SDS011;3807;49.030;8.714;2023-01-08T14:35:08;2.33;;;1.70;;
7531;SDS011;3807;49.030;8.714;2023-01-08T14:37:38;3.20;;;2.60;;
7531;SDS011;3807;49.030;8.714;2023-01-08T14:40:12;2.13;;;1.43;;
7531;SDS011;3807;49.030;8.714;2023-01-08T14:42:40;2.30;;;1.77;;
7531;SDS011;3807;49.030;8.714;2023-01-08T14:45:18;3.90;;;2.80;;
7531;SDS011;3807;49.030;8.714;2023-01-08T14:47:47;1.40;;;1.10;;
7531;SDS011;3807;49.030;8.714;2023-01-08T14:50:35;1.90;;;1.53;;
7531;SDS011;3807;49.030;8.714;2023-01-08T14:55:47;1.50;;;1.30;;
7531;SDS011;3807;49.030;8.714;2023-01-08T14:58:15;4.67;;;2.90;;
7531;SDS011;3807;49.030;8.714;2023-01-08T15:00:44;2.07;;;1.60;;
7531;SDS011;3807;49.030;8.714;2023-01-08T15:03:49;2.00;;;1.20;;
7531;SDS011;3807;49.030;8.714;2023-01-08T15:06:08;4.13;;;2.20;;
7531;SDS011;3807;49.030;8.714;2023-01-08T15:08:38;4.67;;;2.50;;
7531;SDS011;3807;49.030;8.714;2023-01-08T15:13:42;1.73;;;1.30;;
7531;SDS011;3807;49.030;8.714;2023-01-08T15:21:31;4.17;;;2.27;;
7531;SDS011;3807;49.030;8.714;2023-01-08T15:23:58;4.60;;;2.33;;
7531;SDS011;3807;49.030;8.714;2023-01-08T15:26:25;9.93;;;4.87;;
7531;SDS011;3807;49.030;8.714;2023-01-08T15:29:00;6.60;;;2.53;;
7531;SDS011;3807;49.030;8.714;2023-01-08T15:31:30;6.87;;;2.87;;
7531;SDS011;3807;49.030;8.714;2023-01-08T15:34:09;2.43;;;1.50;;
7531;SDS011;3807;49.030;8.714;2023-01-08T15:36:34;3.13;;;1.83;;
7531;SDS011;3807;49.030;8.714;2023-01-08T15:39:00;2.33;;;1.40;;
7531;SDS011;3807;49.030;8.714;2023-01-08T15:41:32;1.20;;;1.10;;
7531;SDS011;3807;49.030;8.714;2023-01-08T15:44:17;4.43;;;1.77;;
7531;SDS011;3807;49.030;8.714;2023-01-08T15:46:43;2.30;;;1.50;;
7531;SDS011;3807;49.030;8.714;2023-01-08T15:49:08;1.80;;;1.50;;
7531;SDS011;3807;49.030;8.714;2023-01-08T15:51:34;2.90;;;2.00;;
7531;SDS011;3807;49.030;8.714;2023-01-08T15:54:05;2.10;;;1.27;;
7531;SDS011;3807;49.030;8.714;2023-01-08T15:56:33;2.40;;;1.77;;
7531;SDS011;3807;49.030;8.714;2023-01-08T15:58:59;2.27;;;1.47;;
7531;SDS011;3807;49.030;8.714;2023-01-08T16:01:24;3.57;;;1.50;;
7531;SDS011;3807;49.030;8.714;2023-01-08T16:03:51;2.20;;;1.70;;
7531;SDS011;3807;49.030;8.714;2023-01-08T16:06:17;1.40;;;1.07;;
7531;SDS011;3807;49.030;8.714;2023-01-08T16:08:42;1.80;;;1.40;;
7531;SDS011;3807;49.030;8.714;2023-01-08T16:11:10;1.83;;;1.20;;
7531;SDS011;3807;49.030;8.714;2023-01-08T16:13:38;1.53;;;1.23;;
7531;SDS011;3807;49.030;8.714;2023-01-08T16:16:07;10.97;;;6.30;;
7531;SDS011;3807;49.030;8.714;2023-01-08T16:18:33;1.93;;;1.63;;
7531;SDS011;3807;49.030;8.714;2023-01-08T16:20:59;3.30;;;1.93;;
7531;SDS011;3807;49.030;8.714;2023-01-08T16:23:25;4.40;;;1.83;;
7531;SDS011;3807;49.030;8.714;2023-01-08T16:25:50;3.73;;;2.53;;
7531;SDS011;3807;49.030;8.714;2023-01-08T16:28:16;8.13;;;3.87;;
7531;SDS011;3807;49.030;8.714;2023-01-08T16:30:41;5.93;;;3.20;;
7531;SDS011;3807;49.030;8.714;2023-01-08T16:33:07;10.57;;;4.43;;
7531;SDS011;3807;49.030;8.714;2023-01-08T16:35:33;4.93;;;2.40;;
7531;SDS011;3807;49.030;8.714;2023-01-08T16:37:58;7.10;;;3.37;;